Time;durP1;ratioP1;P1;durP2;ratioP2;P2;SDS_P1;SDS_P2;PMS_P1;PMS_P2;Temp;Humidity;BMP_temperature;BMP_pressure;BME280_temperature;BME280_humidity;BME280_pressure;Samples;Min_cycle;Max_cycle;Signal;HPM_P1;HPM_P2
2021/03/05 00:01:39;;;;;;;19.02;13.60;;;;;;;;;;5114670;28;20199;-61
2021/03/05 00:04:06;;;;;;;19.15;10.88;;;;;;;;;;5114411;28;20726;-61
2021/03/05 00:06:33;;;;;;;16.83;11.25;;;;;;;;;;5114157;28;20257;-62
2021/03/05 00:09:00;;;;;;;16.25;11.85;;;;;;;;;;5114894;28;20223;-61
2021/03/05 00:11:27;;;;;;;14.50;10.02;;;;;;;;;;5116037;28;20202;-61
2021/03/05 00:13:54;;;;;;;13.65;11.30;;;;;;;;;;5124640;28;20226;-61
2021/03/05 00:16:20;;;;;;;16.60;11.85;;;;;;;;;;5126223;28;20248;-61
2021/03/05 00:18:47;;;;;;;18.73;11.93;;;;;;;;;;5120483;28;20270;-61
2021/03/05 00:21:14;;;;;;;15.80;10.82;;;;;;;;;;5114695;28;20203;-62
2021/03/05 00:23:42;;;;;;;16.30;10.75;;;;;;;;;;5117938;28;20219;-61
2021/03/05 00:26:08;;;;;;;15.07;10.73;;;;;;;;;;5119134;28;20199;-61
2021/03/05 00:28:35;;;;;;;15.35;10.25;;;;;;;;;;5118257;28;20215;-61
2021/03/05 00:31:02;;;;;;;15.40;10.43;;;;;;;;;;5127446;28;20211;-61
2021/03/05 00:33:28;;;;;;;12.70;9.38;;;;;;;;;;5130730;28;20215;-61
2021/03/05 00:35:55;;;;;;;12.07;9.57;;;;;;;;;;5121207;28;20203;-61
2021/03/05 00:38:22;;;;;;;13.57;9.23;;;;;;;;;;5119420;28;20199;-61
2021/03/05 00:40:50;;;;;;;10.43;7.90;;;;;;;;;;5120234;28;20574;-62
2021/03/05 00:43:17;;;;;;;10.30;8.05;;;;;;;;;;5125158;28;20598;-61
2021/03/05 00:45:43;;;;;;;11.77;8.32;;;;;;;;;;5121242;28;20229;-61
2021/03/05 00:48:11;;;;;;;16.23;8.13;;;;;;;;;;5117788;28;20215;-62
2021/03/05 00:50:37;;;;;;;12.05;7.65;;;;;;;;;;5120284;28;20553;-61
2021/03/05 00:53:04;;;;;;;12.27;8.20;;;;;;;;;;5118318;28;20228;-61
2021/03/05 00:55:31;;;;;;;9.55;7.25;;;;;;;;;;5117782;28;20245;-61
2021/03/05 00:57:59;;;;;;;13.90;7.95;;;;;;;;;;5117709;27;20565;-60
2021/03/05 01:00:26;;;;;;;10.25;7.50;;;;;;;;;;5117483;28;20199;-61
2021/03/05 01:02:53;;;;;;;12.13;7.22;;;;;;;;;;5117590;28;20586;-61
2021/03/05 01:05:20;;;;;;;9.40;6.80;;;;;;;;;;5117216;28;20204;-60
2021/03/05 01:07:47;;;;;;;10.93;6.82;;;;;;;;;;5116928;28;20231;-61
2021/03/05 01:10:14;;;;;;;10.80;5.40;;;;;;;;;;5117376;28;20204;-61
2021/03/05 01:12:41;;;;;;;8.23;6.07;;;;;;;;;;5117346;28;20195;-61
2021/03/05 01:15:09;;;;;;;11.05;5.28;;;;;;;;;;5117177;28;20225;-62
2021/03/05 01:17:36;;;;;;;9.35;6.50;;;;;;;;;;5117265;28;20256;-61
2021/03/05 01:20:06;;;;;;;6.43;4.80;;;;;;;;;;5117363;28;20199;-61
2021/03/05 01:22:33;;;;;;;8.55;5.70;;;;;;;;;;5117070;28;20624;-61
2021/03/05 01:24:59;;;;;;;5.53;4.03;;;;;;;;;;5121828;28;20219;-61
2021/03/05 01:27:26;;;;;;;5.55;4.40;;;;;;;;;;5117001;28;20203;-60
2021/03/05 01:29:53;;;;;;;5.95;4.40;;;;;;;;;;5116976;28;20581;-62
2021/03/05 01:32:20;;;;;;;7.40;3.85;;;;;;;;;;5116569;27;20689;-61
2021/03/05 01:34:47;;;;;;;8.65;4.10;;;;;;;;;;5116054;28;20220;-61
2021/03/05 01:37:14;;;;;;;6.40;3.45;;;;;;;;;;5116695;28;20199;-61
2021/03/05 01:39:41;;;;;;;7.82;4.03;;;;;;;;;;5118107;28;20195;-61
2021/03/05 01:42:08;;;;;;;4.45;3.63;;;;;;;;;;5118305;28;20199;-61
2021/03/05 01:44:35;;;;;;;6.40;3.63;;;;;;;;;;5117370;28;20265;-61
2021/03/05 01:47:02;;;;;;;7.63;3.20;;;;;;;;;;5117471;28;20663;-60
2021/03/05 01:49:30;;;;;;;4.05;2.88;;;;;;;;;;5117360;28;20339;-60
2021/03/05 01:51:56;;;;;;;7.10;3.15;;;;;;;;;;5117856;28;20252;-61
2021/03/05 01:54:23;;;;;;;4.80;3.33;;;;;;;;;;5118858;28;20228;-61
2021/03/05 01:56:52;;;;;;;5.32;3.63;;;;;;;;;;5118865;28;20199;-60
2021/03/05 01:59:20;;;;;;;6.00;3.63;;;;;;;;;;5117524;28;20198;-61
2021/03/05 02:01:46;;;;;;;7.40;3.65;;;;;;;;;;5119039;28;20204;-61
2021/03/05 02:04:14;;;;;;;4.15;2.80;;;;;;;;;;5118056;28;20269;-61
2021/03/05 02:06:41;;;;;;;8.00;3.90;;;;;;;;;;5118436;28;20219;-61
2021/03/05 02:09:08;;;;;;;5.57;3.22;;;;;;;;;;5116755;28;20219;-61
2021/03/05 02:11:37;;;;;;;4.22;2.92;;;;;;;;;;5118915;28;20195;-61
2021/03/05 02:14:05;;;;;;;3.38;2.17;;;;;;;;;;5121819;27;20268;-61
2021/03/05 02:16:36;;;;;;;3.85;2.47;;;;;;;;;;5119455;28;20207;-60
2021/03/05 02:19:08;;;;;;;3.60;2.40;;;;;;;;;;5120640;28;20195;-61
2021/03/05 02:21:58;;;;;;;6.72;2.60;;;;;;;;;;5119803;28;20184;-60
2021/03/05 02:24:39;;;;;;;7.03;3.42;;;;;;;;;;5119622;27;20228;-60
2021/03/05 02:27:25;;;;;;;4.18;3.00;;;;;;;;;;5119231;28;20188;-61
2021/03/05 02:30:24;;;;;;;4.72;2.67;;;;;;;;;;5118948;28;20200;-61
2021/03/05 02:32:57;;;;;;;3.70;2.50;;;;;;;;;;5053479;28;20240;-61
2021/03/05 02:35:24;;;;;;;12.88;2.55;;;;;;;;;;5062828;28;20198;-61
2021/03/05 02:37:53;;;;;;;6.85;2.63;;;;;;;;;;5094008;28;20268;-61
2021/03/05 02:40:23;;;;;;;5.53;2.28;;;;;;;;;;5118061;28;20621;-61
2021/03/05 02:42:51;;;;;;;5.93;2.88;;;;;;;;;;5117417;28;20260;-61
2021/03/05 02:45:19;;;;;;;4.13;3.05;;;;;;;;;;5115331;28;20206;-61
2021/03/05 02:47:47;;;;;;;2.97;2.00;;;;;;;;;;5114450;28;20598;-61
2021/03/05 02:50:15;;;;;;;2.22;2.03;;;;;;;;;;5115424;28;20675;-61
2021/03/05 02:52:43;;;;;;;3.08;2.25;;;;;;;;;;5115329;28;20199;-61
2021/03/05 02:55:11;;;;;;;3.58;1.95;;;;;;;;;;5115067;28;20199;-61
2021/03/05 02:57:42;;;;;;;4.63;2.15;;;;;;;;;;5115326;28;20207;-59
2021/03/05 03:00:10;;;;;;;7.13;1.95;;;;;;;;;;5115000;28;20199;-60
2021/03/05 03:02:37;;;;;;;6.63;2.63;;;;;;;;;;5115950;28;20204;-60
2021/03/05 03:05:04;;;;;;;3.50;1.90;;;;;;;;;;5114723;28;20227;-60
2021/03/05 03:07:32;;;;;;;3.75;1.90;;;;;;;;;;5121340;28;20232;-60
2021/03/05 03:09:59;;;;;;;6.05;1.80;;;;;;;;;;5128244;28;20208;-60
2021/03/05 03:12:26;;;;;;;3.53;2.25;;;;;;;;;;5119093;28;20199;-61
2021/03/05 03:14:53;;;;;;;3.72;2.38;;;;;;;;;;5116322;28;20223;-60
2021/03/05 03:17:21;;;;;;;4.93;2.05;;;;;;;;;;5116288;28;20210;-60
2021/03/05 03:19:49;;;;;;;3.67;2.15;;;;;;;;;;5125747;28;20200;-60
2021/03/05 03:22:15;;;;;;;5.03;2.47;;;;;;;;;;5128713;28;20609;-61
2021/03/05 03:24:43;;;;;;;2.92;1.60;;;;;;;;;;5116398;28;20226;-60
2021/03/05 03:27:10;;;;;;;3.85;2.20;;;;;;;;;;5115756;28;20200;-59
2021/03/05 03:29:37;;;;;;;7.43;2.70;;;;;;;;;;5116048;28;20587;-60
2021/03/05 03:32:04;;;;;;;9.93;2.50;;;;;;;;;;5116394;28;20629;-60
2021/03/05 03:34:31;;;;;;;5.07;2.30;;;;;;;;;;5116113;28;20280;-60
2021/03/05 03:36:58;;;;;;;4.85;2.75;;;;;;;;;;5117771;28;20249;-61
2021/03/05 03:39:25;;;;;;;5.50;2.60;;;;;;;;;;5115855;28;20196;-60
2021/03/05 03:41:54;;;;;;;5.43;2.15;;;;;;;;;;5115425;28;20663;-61
2021/03/05 03:44:20;;;;;;;6.78;2.42;;;;;;;;;;5114966;28;20573;-60
2021/03/05 03:46:48;;;;;;;4.63;2.63;;;;;;;;;;5115221;28;20252;-61
2021/03/05 03:49:18;;;;;;;5.65;2.03;;;;;;;;;;5115099;28;20223;-61
2021/03/05 03:51:47;;;;;;;4.03;2.25;;;;;;;;;;5114836;28;20200;-60
2021/03/05 03:54:15;;;;;;;10.38;2.75;;;;;;;;;;5116925;28;20219;-62
2021/03/05 03:56:42;;;;;;;4.72;1.75;;;;;;;;;;5121152;28;20195;-61
2021/03/05 03:59:12;;;;;;;4.18;2.58;;;;;;;;;;5120360;28;20199;-60
2021/03/05 04:01:40;;;;;;;9.57;3.05;;;;;;;;;;5120204;28;20202;-59
2021/03/05 04:04:07;;;;;;;4.95;2.83;;;;;;;;;;5119498;28;20251;-61
2021/03/05 04:07:50;;;;;;;8.20;2.85;;;;;;;;;;5114832;27;20604;-60
2021/03/05 04:10:17;;;;;;;8.35;3.00;;;;;;;;;;5113841;28;20199;-60
2021/03/05 04:12:44;;;;;;;3.47;2.08;;;;;;;;;;5115295;28;20200;-60
2021/03/05 04:15:12;;;;;;;3.35;2.30;;;;;;;;;;5114485;28;20211;-60
2021/03/05 04:17:39;;;;;;;10.20;2.35;;;;;;;;;;5114500;28;20198;-60
2021/03/05 04:20:07;;;;;;;4.60;2.55;;;;;;;;;;5115342;28;20206;-60
2021/03/05 04:22:34;;;;;;;3.92;2.10;;;;;;;;;;5118795;28;20196;-59
2021/03/05 04:25:02;;;;;;;3.97;2.15;;;;;;;;;;5117570;28;20224;-61
2021/03/05 04:27:28;;;;;;;4.47;2.70;;;;;;;;;;5123682;28;20231;-61
2021/03/05 04:29:55;;;;;;;5.38;2.58;;;;;;;;;;5122768;28;20659;-62
2021/03/05 04:32:22;;;;;;;2.22;1.90;;;;;;;;;;5118763;28;20207;-60
2021/03/05 04:34:49;;;;;;;3.22;2.30;;;;;;;;;;5117917;28;20587;-60
2021/03/05 04:37:15;;;;;;;3.72;2.08;;;;;;;;;;5116392;28;20195;-60
2021/03/05 04:39:42;;;;;;;11.63;2.40;;;;;;;;;;5116170;28;20208;-61
2021/03/05 04:42:10;;;;;;;5.15;2.30;;;;;;;;;;5115882;28;20203;-61
2021/03/05 04:44:37;;;;;;;3.08;1.90;;;;;;;;;;5113622;28;20233;-60
2021/03/05 04:47:03;;;;;;;2.72;2.20;;;;;;;;;;5113010;28;20219;-61
2021/03/05 04:49:30;;;;;;;6.80;2.58;;;;;;;;;;5113142;28;20199;-60
2021/03/05 04:51:57;;;;;;;3.78;2.53;;;;;;;;;;5112674;28;20204;-60
2021/03/05 04:54:24;;;;;;;3.88;2.25;;;;;;;;;;5112489;28;20715;-60
2021/03/05 04:56:50;;;;;;;3.88;2.00;;;;;;;;;;5113336;28;20196;-61
2021/03/05 04:59:18;;;;;;;6.07;2.40;;;;;;;;;;5113913;28;20199;-60
2021/03/05 05:01:45;;;;;;;8.38;2.60;;;;;;;;;;5111378;28;20222;-60
2021/03/05 05:04:11;;;;;;;4.50;2.67;;;;;;;;;;5112278;28;20219;-60
2021/03/05 05:06:38;;;;;;;4.60;1.88;;;;;;;;;;5110909;28;20282;-60
2021/03/05 05:09:05;;;;;;;4.63;2.65;;;;;;;;;;5110721;28;20204;-60
2021/03/05 05:11:32;;;;;;;5.30;2.20;;;;;;;;;;5110513;28;20200;-60
2021/03/05 05:13:59;;;;;;;5.32;2.70;;;;;;;;;;5113481;28;20220;-60
2021/03/05 05:16:28;;;;;;;3.20;2.20;;;;;;;;;;5121842;28;20218;-60
2021/03/05 05:18:54;;;;;;;5.32;3.03;;;;;;;;;;5100995;28;20668;-58
2021/03/05 05:21:21;;;;;;;2.35;2.10;;;;;;;;;;5100059;28;20199;-60
2021/03/05 05:23:48;;;;;;;3.85;2.50;;;;;;;;;;5097346;28;20220;-60
2021/03/05 05:26:15;;;;;;;4.32;2.47;;;;;;;;;;5096932;28;20216;-59
2021/03/05 05:28:42;;;;;;;3.72;2.60;;;;;;;;;;5098274;28;20236;-60
2021/03/05 05:31:09;;;;;;;4.57;2.38;;;;;;;;;;5096824;28;20204;-60
2021/03/05 05:33:36;;;;;;;3.75;2.30;;;;;;;;;;5096748;28;20626;-60
2021/03/05 05:36:03;;;;;;;3.90;2.90;;;;;;;;;;5096720;28;20249;-61
2021/03/05 05:38:30;;;;;;;5.43;2.97;;;;;;;;;;5096359;28;20196;-60
2021/03/05 05:41:00;;;;;;;6.00;2.60;;;;;;;;;;5096196;28;20200;-60
2021/03/05 05:43:30;;;;;;;5.25;2.92;;;;;;;;;;5095924;28;20597;-60
2021/03/05 05:45:59;;;;;;;3.67;2.88;;;;;;;;;;5096008;28;20219;-61
2021/03/05 05:48:26;;;;;;;6.57;3.05;;;;;;;;;;5095850;28;20200;-60
2021/03/05 05:50:54;;;;;;;5.60;2.88;;;;;;;;;;5095755;28;20200;-60
2021/03/05 05:53:23;;;;;;;7.30;2.50;;;;;;;;;;5101094;28;20221;-60
2021/03/05 05:55:49;;;;;;;6.68;2.75;;;;;;;;;;5106577;28;20201;-61
2021/03/05 05:58:16;;;;;;;4.75;3.33;;;;;;;;;;5110969;28;20211;-61
2021/03/05 06:00:44;;;;;;;5.13;3.00;;;;;;;;;;5104891;28;20201;-61
2021/03/05 06:03:11;;;;;;;9.27;3.65;;;;;;;;;;5110800;28;20220;-61
2021/03/05 06:05:38;;;;;;;7.68;3.00;;;;;;;;;;5108100;28;20212;-60
2021/03/05 06:08:06;;;;;;;5.90;3.00;;;;;;;;;;5102507;28;20196;-62
2021/03/05 06:10:33;;;;;;;3.20;2.90;;;;;;;;;;5105205;28;20200;-61
2021/03/05 06:13:00;;;;;;;5.63;4.00;;;;;;;;;;5100493;28;20211;-60
2021/03/05 06:15:29;;;;;;;7.20;3.83;;;;;;;;;;5099198;28;20574;-61
2021/03/05 06:17:56;;;;;;;4.60;3.55;;;;;;;;;;5100149;28;20201;-60
2021/03/05 06:20:23;;;;;;;5.50;3.20;;;;;;;;;;5097633;28;20668;-61
2021/03/05 06:23:04;;;;;;;4.22;3.72;;;;;;;;;;5096752;28;20614;-60
2021/03/05 06:25:35;;;;;;;4.43;3.67;;;;;;;;;;5098072;28;20188;-61
2021/03/05 06:28:11;;;;;;;5.97;4.03;;;;;;;;;;5101613;28;20185;-60
2021/03/05 06:30:37;;;;;;;13.98;5.43;;;;;;;;;;5096263;28;20605;-61
2021/03/05 06:33:05;;;;;;;5.90;3.65;;;;;;;;;;5096692;28;20600;-61
2021/03/05 06:35:31;;;;;;;7.60;4.38;;;;;;;;;;5096657;28;20211;-60
2021/03/05 06:37:58;;;;;;;6.60;4.28;;;;;;;;;;5097444;28;20203;-60
2021/03/05 06:40:25;;;;;;;10.65;4.45;;;;;;;;;;5098681;28;20254;-60
2021/03/05 06:42:53;;;;;;;8.23;4.43;;;;;;;;;;5109877;28;20196;-61
2021/03/05 06:45:21;;;;;;;9.40;4.95;;;;;;;;;;5113038;28;20223;-60
2021/03/05 06:48:01;;;;;;;5.35;3.95;;;;;;;;;;5109853;28;20228;-61
2021/03/05 06:50:28;;;;;;;8.40;4.70;;;;;;;;;;5101423;28;20559;-60
2021/03/05 06:52:54;;;;;;;6.95;4.63;;;;;;;;;;5097940;28;20223;-60
2021/03/05 06:55:21;;;;;;;10.00;4.75;;;;;;;;;;5098649;28;20200;-60
2021/03/05 06:57:49;;;;;;;5.65;4.40;;;;;;;;;;5097998;28;20200;-61
2021/03/05 07:00:17;;;;;;;5.85;3.80;;;;;;;;;;5095735;28;20251;-62
2021/03/05 07:02:45;;;;;;;8.85;4.75;;;;;;;;;;5095804;28;20207;-60
2021/03/05 07:05:12;;;;;;;6.40;4.90;;;;;;;;;;5095866;28;20299;-61
2021/03/05 07:07:43;;;;;;;5.20;4.55;;;;;;;;;;5095471;28;20246;-60
2021/03/05 07:10:10;;;;;;;9.43;4.40;;;;;;;;;;5094975;28;20208;-61
2021/03/05 07:12:37;;;;;;;11.73;5.10;;;;;;;;;;5094941;28;20200;-60
2021/03/05 07:15:06;;;;;;;8.65;4.30;;;;;;;;;;5094875;28;20220;-60
2021/03/05 07:17:33;;;;;;;6.03;4.05;;;;;;;;;;5094925;28;20197;-60
2021/03/05 07:20:00;;;;;;;5.47;4.22;;;;;;;;;;5094714;28;20592;-61
2021/03/05 07:22:28;;;;;;;4.75;3.95;;;;;;;;;;5094424;28;20209;-61
2021/03/05 07:24:56;;;;;;;8.80;4.50;;;;;;;;;;5094398;28;20221;-61
2021/03/05 07:27:29;;;;;;;7.90;4.60;;;;;;;;;;5094736;28;20273;-61
2021/03/05 07:29:57;;;;;;;7.13;5.05;;;;;;;;;;5093956;28;20636;-61
2021/03/05 07:32:26;;;;;;;8.13;5.20;;;;;;;;;;5094614;28;20206;-61
2021/03/05 07:34:57;;;;;;;6.22;4.90;;;;;;;;;;5094087;28;20220;-61
2021/03/05 07:37:25;;;;;;;8.93;4.63;;;;;;;;;;5095259;28;20215;-60
2021/03/05 07:39:52;;;;;;;4.82;4.13;;;;;;;;;;5094590;28;20277;-60
2021/03/05 07:42:19;;;;;;;6.13;3.53;;;;;;;;;;5094626;28;20212;-61
2021/03/05 07:44:46;;;;;;;6.18;4.10;;;;;;;;;;5093967;28;20730;-61
2021/03/05 07:47:14;;;;;;;8.05;4.60;;;;;;;;;;5094094;28;20601;-60
2021/03/05 07:49:41;;;;;;;3.65;3.15;;;;;;;;;;5093622;28;20209;-61
2021/03/05 07:52:09;;;;;;;7.50;4.10;;;;;;;;;;5093802;28;20200;-61
2021/03/05 07:54:43;;;;;;;8.38;4.03;;;;;;;;;;5093903;28;20216;-61
2021/03/05 07:57:39;;;;;;;6.78;4.20;;;;;;;;;;5094692;28;20200;-60
2021/03/05 08:00:07;;;;;;;5.75;3.70;;;;;;;;;;5094229;28;20184;-62
2021/03/05 08:02:49;;;;;;;7.53;4.00;;;;;;;;;;5094059;28;20211;-60
2021/03/05 08:05:31;;;;;;;12.75;4.28;;;;;;;;;;5094134;28;20204;-60
2021/03/05 08:08:08;;;;;;;6.82;4.20;;;;;;;;;;5094183;28;20582;-62
2021/03/05 08:10:35;;;;;;;6.50;3.90;;;;;;;;;;5094416;28;20192;-62
2021/03/05 08:13:02;;;;;;;5.18;3.20;;;;;;;;;;5094001;28;20232;-61
2021/03/05 08:15:29;;;;;;;5.45;4.05;;;;;;;;;;5094272;28;20204;-62
2021/03/05 08:17:56;;;;;;;7.10;3.78;;;;;;;;;;5094607;28;20200;-62
2021/03/05 08:20:41;;;;;;;9.48;4.72;;;;;;;;;;5097484;28;20200;-63
2021/03/05 08:23:09;;;;;;;7.03;3.78;;;;;;;;;;5102900;28;20273;-62
2021/03/05 08:25:38;;;;;;;6.03;4.18;;;;;;;;;;5096122;28;20204;-63
2021/03/05 08:28:06;;;;;;;4.05;3.50;;;;;;;;;;5095951;28;20714;-64
2021/03/05 08:30:43;;;;;;;6.80;4.18;;;;;;;;;;5093793;28;20204;-63
2021/03/05 08:33:10;;;;;;;3.95;3.22;;;;;;;;;;5094111;28;20219;-62
2021/03/05 08:35:46;;;;;;;6.00;3.33;;;;;;;;;;5096137;28;20211;-62
2021/03/05 08:38:15;;;;;;;8.35;3.50;;;;;;;;;;5093743;28;20690;-62
2021/03/05 08:40:49;;;;;;;8.77;4.38;;;;;;;;;;5094204;28;20200;-62
2021/03/05 08:43:17;;;;;;;4.50;3.70;;;;;;;;;;5093857;28;20235;-62
2021/03/05 08:45:44;;;;;;;11.20;4.05;;;;;;;;;;5093411;28;20387;-63
2021/03/05 08:48:12;;;;;;;8.30;3.03;;;;;;;;;;5095307;28;20201;-62
2021/03/05 08:50:39;;;;;;;6.35;3.25;;;;;;;;;;5100811;28;20231;-61
2021/03/05 08:53:06;;;;;;;3.80;3.20;;;;;;;;;;5103086;28;20227;-62
2021/03/05 08:55:35;;;;;;;6.28;3.92;;;;;;;;;;5103436;28;20200;-63
2021/03/05 08:58:02;;;;;;;4.18;3.60;;;;;;;;;;5100064;28;20682;-62
2021/03/05 09:00:31;;;;;;;6.10;3.33;;;;;;;;;;5108292;28;20208;-62
2021/03/05 09:03:04;;;;;;;4.90;2.83;;;;;;;;;;5102945;28;20227;-63
2021/03/05 09:05:33;;;;;;;3.53;2.75;;;;;;;;;;5100230;28;20276;-61
2021/03/05 09:08:01;;;;;;;6.80;3.80;;;;;;;;;;5098778;28;20208;-63
2021/03/05 09:10:39;;;;;;;5.05;3.10;;;;;;;;;;5099043;28;20346;-63
2021/03/05 09:13:06;;;;;;;5.63;3.25;;;;;;;;;;5097481;28;20833;-62
2021/03/05 09:15:41;;;;;;;7.57;3.70;;;;;;;;;;5097724;28;20200;-65
2021/03/05 09:18:09;;;;;;;6.05;3.50;;;;;;;;;;5098798;28;20219;-63
2021/03/05 09:20:43;;;;;;;7.00;3.50;;;;;;;;;;5099020;28;20231;-64
2021/03/05 09:23:29;;;;;;;6.68;3.20;;;;;;;;;;5098114;28;20251;-63
2021/03/05 09:25:58;;;;;;;13.32;3.15;;;;;;;;;;5097827;28;20208;-63
2021/03/05 09:28:25;;;;;;;3.22;2.50;;;;;;;;;;5097840;28;20308;-61
2021/03/05 09:30:54;;;;;;;3.30;2.65;;;;;;;;;;5097287;28;20236;-63
2021/03/05 09:33:28;;;;;;;7.22;2.70;;;;;;;;;;5097472;28;20225;-62
2021/03/05 09:36:01;;;;;;;4.20;2.90;;;;;;;;;;5096729;28;20200;-62
2021/03/05 09:38:28;;;;;;;7.03;3.53;;;;;;;;;;5096561;28;20204;-59
2021/03/05 09:40:55;;;;;;;7.28;3.15;;;;;;;;;;5096667;28;20226;-61
2021/03/05 09:43:23;;;;;;;7.10;3.35;;;;;;;;;;5096037;28;20224;-63
2021/03/05 09:45:51;;;;;;;4.40;2.58;;;;;;;;;;5096258;28;20232;-62
2021/03/05 09:48:29;;;;;;;5.13;3.00;;;;;;;;;;5097078;28;20337;-63
2021/03/05 09:50:57;;;;;;;4.90;2.58;;;;;;;;;;5096783;28;20253;-63
2021/03/05 09:53:26;;;;;;;6.15;3.10;;;;;;;;;;5097272;28;20220;-62
2021/03/05 09:55:53;;;;;;;4.45;2.70;;;;;;;;;;5095885;28;20234;-63
2021/03/05 09:58:20;;;;;;;6.70;3.33;;;;;;;;;;5095476;28;20203;-64
2021/03/05 10:00:47;;;;;;;9.05;3.10;;;;;;;;;;5095347;28;20204;-61
2021/03/05 10:03:15;;;;;;;4.55;2.50;;;;;;;;;;5095926;28;20228;-64
2021/03/05 10:05:42;;;;;;;3.00;1.88;;;;;;;;;;5095341;28;20581;-64
2021/03/05 10:08:13;;;;;;;4.43;1.85;;;;;;;;;;5095559;28;20718;-62
2021/03/05 10:10:59;;;;;;;6.07;2.85;;;;;;;;;;5095675;28;20197;-62
2021/03/05 10:13:45;;;;;;;4.63;2.30;;;;;;;;;;5097748;28;20220;-62
2021/03/05 10:16:14;;;;;;;5.20;2.83;;;;;;;;;;5107983;28;20212;-64
2021/03/05 10:18:41;;;;;;;3.35;2.35;;;;;;;;;;5098437;28;20196;-64
2021/03/05 10:21:09;;;;;;;6.28;2.42;;;;;;;;;;5098602;28;20207;-65
2021/03/05 10:23:36;;;;;;;4.45;2.92;;;;;;;;;;5095428;28;20220;-64
2021/03/05 10:26:03;;;;;;;7.38;2.50;;;;;;;;;;5095192;28;20227;-63
2021/03/05 10:28:30;;;;;;;4.18;2.58;;;;;;;;;;5095241;28;20587;-64
2021/03/05 10:30:56;;;;;;;2.10;1.90;;;;;;;;;;5095432;28;20211;-66
2021/03/05 10:33:37;;;;;;;2.95;2.20;;;;;;;;;;5095029;28;20220;-62
2021/03/05 10:36:05;;;;;;;4.57;2.40;;;;;;;;;;5095568;28;20196;-62
2021/03/05 10:38:31;;;;;;;3.85;1.90;;;;;;;;;;5095508;28;20212;-61
2021/03/05 10:40:58;;;;;;;3.95;1.90;;;;;;;;;;5095156;28;20253;-63
2021/03/05 10:43:25;;;;;;;5.07;2.15;;;;;;;;;;5095259;28;20580;-63
2021/03/05 10:45:52;;;;;;;3.58;2.05;;;;;;;;;;5095626;28;20601;-62
2021/03/05 10:48:19;;;;;;;4.75;2.05;;;;;;;;;;5096980;28;20231;-63
2021/03/05 10:50:47;;;;;;;3.85;2.50;;;;;;;;;;5096733;28;20687;-63
2021/03/05 10:53:13;;;;;;;2.92;1.90;;;;;;;;;;5095369;28;20220;-63
2021/03/05 10:55:40;;;;;;;3.47;1.65;;;;;;;;;;5094932;28;20211;-61
2021/03/05 10:58:07;;;;;;;2.30;1.90;;;;;;;;;;5094840;28;20204;-63
2021/03/05 11:00:34;;;;;;;4.40;1.85;;;;;;;;;;5095134;28;20664;-61
2021/03/05 11:03:00;;;;;;;3.42;1.70;;;;;;;;;;5095064;28;20625;-63
2021/03/05 11:05:27;;;;;;;3.88;2.22;;;;;;;;;;5096298;28;20201;-63
2021/03/05 11:07:55;;;;;;;3.05;1.77;;;;;;;;;;5099081;28;20215;-63
2021/03/05 11:10:22;;;;;;;5.03;2.10;;;;;;;;;;5102650;28;20208;-63
2021/03/05 11:12:49;;;;;;;4.13;1.85;;;;;;;;;;5103680;28;20204;-64
2021/03/05 11:15:16;;;;;;;3.78;1.77;;;;;;;;;;5097764;28;20738;-62
2021/03/05 11:17:43;;;;;;;2.88;1.73;;;;;;;;;;5097703;28;20570;-63
2021/03/05 11:20:10;;;;;;;2.20;1.63;;;;;;;;;;5098947;28;20200;-62
2021/03/05 11:22:37;;;;;;;1.65;1.42;;;;;;;;;;5098095;28;20230;-62
2021/03/05 11:25:05;;;;;;;1.80;1.42;;;;;;;;;;5104135;28;20302;-62
2021/03/05 11:27:34;;;;;;;1.63;1.30;;;;;;;;;;5097830;28;20266;-63
2021/03/05 11:30:01;;;;;;;6.28;1.70;;;;;;;;;;5101945;28;20614;-62
2021/03/05 11:32:28;;;;;;;4.28;1.65;;;;;;;;;;5097069;28;20232;-61
2021/03/05 11:34:54;;;;;;;3.33;1.40;;;;;;;;;;5097004;28;20231;-62
2021/03/05 11:37:21;;;;;;;2.50;1.30;;;;;;;;;;5098259;28;20205;-63
2021/03/05 11:39:48;;;;;;;2.42;1.95;;;;;;;;;;5097156;28;20204;-63
2021/03/05 11:42:15;;;;;;;1.55;1.23;;;;;;;;;;5094892;28;20683;-62
2021/03/05 11:44:42;;;;;;;2.45;1.50;;;;;;;;;;5099821;28;20223;-63
2021/03/05 11:47:10;;;;;;;1.65;1.40;;;;;;;;;;5101808;28;20216;-62
2021/03/05 11:49:37;;;;;;;1.52;1.33;;;;;;;;;;5096584;28;20208;-63
2021/03/05 11:52:04;;;;;;;5.45;1.40;;;;;;;;;;5096902;28;20640;-62
2021/03/05 11:54:31;;;;;;;1.92;1.00;;;;;;;;;;5095628;28;20228;-62
2021/03/05 11:56:58;;;;;;;1.30;1.00;;;;;;;;;;5096478;28;20203;-64
2021/03/05 11:59:25;;;;;;;4.10;1.45;;;;;;;;;;5096668;28;20253;-64
2021/03/05 12:01:52;;;;;;;2.70;1.20;;;;;;;;;;5097064;28;20281;-63
2021/03/05 12:04:19;;;;;;;1.70;0.90;;;;;;;;;;5096750;28;20224;-64
2021/03/05 12:06:46;;;;;;;1.60;1.27;;;;;;;;;;5096553;28;20219;-64
2021/03/05 12:09:12;;;;;;;1.90;1.13;;;;;;;;;;5105682;28;20695;-63
2021/03/05 12:11:39;;;;;;;2.33;1.50;;;;;;;;;;5107586;28;20209;-65
2021/03/05 12:14:06;;;;;;;2.60;1.42;;;;;;;;;;5096088;28;20220;-63
2021/03/05 12:16:34;;;;;;;2.20;1.15;;;;;;;;;;5095290;28;20207;-64
2021/03/05 12:19:00;;;;;;;2.05;1.33;;;;;;;;;;5095001;28;20204;-65
2021/03/05 12:21:27;;;;;;;1.95;1.20;;;;;;;;;;5094666;28;20200;-64
2021/03/05 12:23:54;;;;;;;1.63;1.30;;;;;;;;;;5094346;28;20289;-64
2021/03/05 12:26:21;;;;;;;2.17;1.27;;;;;;;;;;5094139;28;20204;-64
2021/03/05 12:28:48;;;;;;;2.90;1.40;;;;;;;;;;5096318;28;20328;-64
2021/03/05 12:31:15;;;;;;;2.38;1.55;;;;;;;;;;5098688;28;20201;-62
2021/03/05 12:33:43;;;;;;;3.25;1.15;;;;;;;;;;5098354;28;20228;-64
2021/03/05 12:36:10;;;;;;;2.47;1.20;;;;;;;;;;5098159;28;20223;-64
2021/03/05 12:38:37;;;;;;;1.75;1.30;;;;;;;;;;5098202;28;20204;-64
2021/03/05 12:41:04;;;;;;;6.20;1.60;;;;;;;;;;5097979;28;20201;-64
2021/03/05 12:43:31;;;;;;;2.05;1.30;;;;;;;;;;5097869;28;20660;-64
2021/03/05 12:45:58;;;;;;;2.08;1.42;;;;;;;;;;5097782;28;20205;-64
2021/03/05 12:48:25;;;;;;;2.00;1.27;;;;;;;;;;5097708;28;20562;-63
2021/03/05 12:50:53;;;;;;;1.77;1.60;;;;;;;;;;5098051;28;20253;-63
2021/03/05 12:53:19;;;;;;;2.53;1.52;;;;;;;;;;5098341;28;20228;-64
2021/03/05 12:55:46;;;;;;;2.28;1.92;;;;;;;;;;5099871;28;20228;-62
2021/03/05 12:58:13;;;;;;;1.50;1.27;;;;;;;;;;5098857;28;20664;-63
2021/03/05 13:00:40;;;;;;;2.38;1.20;;;;;;;;;;5098195;28;20200;-64
2021/03/05 13:03:07;;;;;;;1.48;0.88;;;;;;;;;;5098629;28;20228;-64
2021/03/05 13:05:34;;;;;;;1.35;1.25;;;;;;;;;;5097800;28;20246;-63
2021/03/05 13:08:02;;;;;;;4.63;1.38;;;;;;;;;;5097519;28;20216;-63
2021/03/05 13:10:28;;;;;;;1.63;1.20;;;;;;;;;;5097722;28;20204;-62
2021/03/05 13:12:55;;;;;;;1.98;1.20;;;;;;;;;;5097330;28;20200;-62
2021/03/05 13:15:22;;;;;;;1.60;1.00;;;;;;;;;;5097752;28;20197;-62
2021/03/05 13:17:49;;;;;;;1.33;1.08;;;;;;;;;;5097607;28;20218;-63
2021/03/05 13:20:16;;;;;;;1.52;1.33;;;;;;;;;;5097611;28;20579;-62
2021/03/05 13:22:42;;;;;;;2.58;1.23;;;;;;;;;;5097577;28;20201;-61
2021/03/05 13:25:13;;;;;;;1.17;1.00;;;;;;;;;;5097013;28;20207;-62
2021/03/05 13:27:40;;;;;;;1.42;1.25;;;;;;;;;;5097233;28;20204;-64
2021/03/05 13:30:07;;;;;;;3.05;1.35;;;;;;;;;;5097284;28;20211;-64
2021/03/05 13:32:34;;;;;;;2.95;1.45;;;;;;;;;;5096880;28;20204;-65
2021/03/05 13:35:01;;;;;;;3.03;1.60;;;;;;;;;;5096799;28;20220;-65
2021/03/05 13:37:28;;;;;;;3.05;1.40;;;;;;;;;;5096378;28;20201;-64
2021/03/05 13:39:54;;;;;;;1.90;1.20;;;;;;;;;;5097251;28;20634;-65
2021/03/05 13:42:22;;;;;;;1.63;1.20;;;;;;;;;;5097581;28;20602;-63
2021/03/05 13:44:49;;;;;;;2.95;1.35;;;;;;;;;;5098207;28;20220;-63
2021/03/05 13:47:15;;;;;;;2.55;1.20;;;;;;;;;;5098158;28;20212;-64
2021/03/05 13:49:42;;;;;;;3.90;2.10;;;;;;;;;;5097797;28;20204;-64
2021/03/05 13:52:09;;;;;;;1.52;0.85;;;;;;;;;;5098596;28;20566;-65
2021/03/05 13:54:36;;;;;;;3.03;1.33;;;;;;;;;;5099540;28;20580;-64
2021/03/05 13:57:02;;;;;;;1.83;1.10;;;;;;;;;;5097841;28;20196;-63
2021/03/05 13:59:30;;;;;;;1.27;1.00;;;;;;;;;;5097126;28;20205;-64
2021/03/05 14:01:57;;;;;;;1.90;1.30;;;;;;;;;;5098125;28;20669;-64
2021/03/05 14:04:23;;;;;;;2.40;1.02;;;;;;;;;;5098438;28;20273;-64
2021/03/05 14:06:50;;;;;;;1.40;1.02;;;;;;;;;;5098132;28;20228;-64
2021/03/05 14:09:17;;;;;;;2.90;1.80;;;;;;;;;;5096935;28;20203;-64
2021/03/05 14:11:44;;;;;;;1.70;1.30;;;;;;;;;;5096127;28;20672;-63
2021/03/05 14:14:10;;;;;;;3.05;1.10;;;;;;;;;;5098071;28;20235;-64
2021/03/05 14:16:38;;;;;;;1.02;0.80;;;;;;;;;;5100219;28;20200;-64
2021/03/05 14:19:05;;;;;;;2.10;1.67;;;;;;;;;;5099242;28;20231;-64
2021/03/05 14:21:32;;;;;;;1.55;1.10;;;;;;;;;;5103493;28;20230;-62
2021/03/05 14:23:58;;;;;;;2.33;1.35;;;;;;;;;;5100729;28;20224;-62
2021/03/05 14:26:27;;;;;;;2.35;1.52;;;;;;;;;;5098960;28;20337;-63
2021/03/05 14:28:53;;;;;;;2.15;1.13;;;;;;;;;;5100795;28;20620;-64
2021/03/05 14:31:20;;;;;;;3.30;1.20;;;;;;;;;;5104372;28;20196;-65
2021/03/05 14:33:48;;;;;;;1.58;1.10;;;;;;;;;;5101360;28;20224;-64
2021/03/05 14:36:14;;;;;;;2.78;1.02;;;;;;;;;;5104227;28;20200;-64
2021/03/05 14:38:41;;;;;;;2.60;1.33;;;;;;;;;;5103284;28;20288;-64
2021/03/05 14:41:08;;;;;;;1.77;1.00;;;;;;;;;;5102574;28;20200;-65
2021/03/05 14:43:35;;;;;;;2.03;1.15;;;;;;;;;;5101266;28;20227;-64
2021/03/05 14:46:01;;;;;;;1.42;1.15;;;;;;;;;;5103287;28;20653;-63
2021/03/05 14:48:29;;;;;;;3.13;1.50;;;;;;;;;;5103275;28;20220;-65